sensor_id;sensor_type;location;lat;lon;timestamp;temperature;humidity
17284;DHT22;8760;52.248;20.952;2022-10-17T00:01:27;13.00;99.90
17284;DHT22;8760;52.248;20.952;2022-10-17T00:03:54;12.90;99.90
17284;DHT22;8760;52.248;20.952;2022-10-17T00:06:20;12.90;99.90
17284;DHT22;8760;52.248;20.952;2022-10-17T00:08:47;12.90;99.90
17284;DHT22;8760;52.248;20.952;2022-10-17T00:11:16;12.90;99.90
17284;DHT22;8760;52.248;20.952;2022-10-17T00:13:45;12.90;99.90
17284;DHT22;8760;52.248;20.952;2022-10-17T00:16:13;12.90;99.90
17284;DHT22;8760;52.248;20.952;2022-10-17T00:18:40;12.90;99.90
17284;DHT22;8760;52.248;20.952;2022-10-17T00:21:14;12.90;99.90
17284;DHT22;8760;52.248;20.952;2022-10-17T00:23:41;12.80;99.90
17284;DHT22;8760;52.248;20.952;2022-10-17T00:26:09;12.90;99.90
17284;DHT22;8760;52.248;20.952;2022-10-17T00:28:36;12.90;99.90
17284;DHT22;8760;52.248;20.952;2022-10-17T00:31:05;12.80;99.90
17284;DHT22;8760;52.248;20.952;2022-10-17T00:33:33;12.90;99.90
17284;DHT22;8760;52.248;20.952;2022-10-17T00:36:05;12.90;99.90
17284;DHT22;8760;52.248;20.952;2022-10-17T00:38:33;12.90;99.90
17284;DHT22;8760;52.248;20.952;2022-10-17T00:41:00;12.90;99.90
17284;DHT22;8760;52.248;20.952;2022-10-17T00:43:27;12.80;99.90
17284;DHT22;8760;52.248;20.952;2022-10-17T00:45:55;12.80;99.90
17284;DHT22;8760;52.248;20.952;2022-10-17T00:48:24;12.80;99.90
17284;DHT22;8760;52.248;20.952;2022-10-17T00:50:51;12.80;99.90
17284;DHT22;8760;52.248;20.952;2022-10-17T00:53:18;12.80;99.90
17284;DHT22;8760;52.248;20.952;2022-10-17T00:55:49;12.80;99.90
17284;DHT22;8760;52.248;20.952;2022-10-17T00:58:18;12.80;99.90
17284;DHT22;8760;52.248;20.952;2022-10-17T01:00:46;12.80;99.90
17284;DHT22;8760;52.248;20.952;2022-10-17T01:03:13;12.70;99.90
17284;DHT22;8760;52.248;20.952;2022-10-17T01:05:42;12.70;99.90
17284;DHT22;8760;52.248;20.952;2022-10-17T01:08:10;12.70;99.90
17284;DHT22;8760;52.248;20.952;2022-10-17T01:10:47;12.60;99.90
17284;DHT22;8760;52.248;20.952;2022-10-17T01:13:23;12.60;99.90
17284;DHT22;8760;52.248;20.952;2022-10-17T01:15:58;12.60;99.90
17284;DHT22;8760;52.248;20.952;2022-10-17T01:18:34;12.60;99.90
17284;DHT22;8760;52.248;20.952;2022-10-17T01:21:20;12.60;99.90
17284;DHT22;8760;52.248;20.952;2022-10-17T01:24:07;12.60;99.90
17284;DHT22;8760;52.248;20.952;2022-10-17T01:29:53;12.60;99.90
17284;DHT22;8760;52.248;20.952;2022-10-17T01:32:29;12.60;99.90
17284;DHT22;8760;52.248;20.952;2022-10-17T01:35:03;12.60;99.90
17284;DHT22;8760;52.248;20.952;2022-10-17T01:37:39;12.60;99.90
17284;DHT22;8760;52.248;20.952;2022-10-17T01:40:09;12.60;99.90
17284;DHT22;8760;52.248;20.952;2022-10-17T01:42:43;12.60;99.90
17284;DHT22;8760;52.248;20.952;2022-10-17T01:45:15;12.60;99.90
17284;DHT22;8760;52.248;20.952;2022-10-17T01:47:46;12.50;99.90
17284;DHT22;8760;52.248;20.952;2022-10-17T01:50:19;12.50;99.90
17284;DHT22;8760;52.248;20.952;2022-10-17T01:52:52;12.40;99.90
17284;DHT22;8760;52.248;20.952;2022-10-17T01:55:22;12.40;99.90
17284;DHT22;8760;52.248;20.952;2022-10-17T01:57:54;12.40;99.90
17284;DHT22;8760;52.248;20.952;2022-10-17T02:00:24;12.50;99.90
17284;DHT22;8760;52.248;20.952;2022-10-17T02:02:57;12.40;99.90
17284;DHT22;8760;52.248;20.952;2022-10-17T02:05:37;12.50;99.90
17284;DHT22;8760;52.248;20.952;2022-10-17T02:08:04;12.40;99.90
17284;DHT22;8760;52.248;20.952;2022-10-17T02:10:38;12.40;99.90
17284;DHT22;8760;52.248;20.952;2022-10-17T02:13:09;12.40;99.90
17284;DHT22;8760;52.248;20.952;2022-10-17T02:15:53;12.40;99.90
17284;DHT22;8760;52.248;20.952;2022-10-17T02:18:45;12.30;99.90
17284;DHT22;8760;52.248;20.952;2022-10-17T02:21:19;12.30;99.90
17284;DHT22;8760;52.248;20.952;2022-10-17T02:23:52;12.30;99.90
17284;DHT22;8760;52.248;20.952;2022-10-17T02:26:25;12.30;99.90
17284;DHT22;8760;52.248;20.952;2022-10-17T02:29:02;12.30;99.90
17284;DHT22;8760;52.248;20.952;2022-10-17T02:31:35;12.30;99.90
17284;DHT22;8760;52.248;20.952;2022-10-17T02:34:08;12.30;99.90
17284;DHT22;8760;52.248;20.952;2022-10-17T02:36:41;12.20;99.90
17284;DHT22;8760;52.248;20.952;2022-10-17T02:39:10;12.20;99.90
17284;DHT22;8760;52.248;20.952;2022-10-17T02:41:39;12.20;99.90
17284;DHT22;8760;52.248;20.952;2022-10-17T02:44:07;12.30;99.90
17284;DHT22;8760;52.248;20.952;2022-10-17T02:46:37;12.20;99.90
17284;DHT22;8760;52.248;20.952;2022-10-17T02:49:12;12.20;99.90
17284;DHT22;8760;52.248;20.952;2022-10-17T02:51:45;12.20;99.90
17284;DHT22;8760;52.248;20.952;2022-10-17T02:54:17;12.20;99.90
17284;DHT22;8760;52.248;20.952;2022-10-17T02:56:52;12.20;99.90
17284;DHT22;8760;52.248;20.952;2022-10-17T02:59:21;12.20;99.90
17284;DHT22;8760;52.248;20.952;2022-10-17T03:01:51;12.20;99.90
17284;DHT22;8760;52.248;20.952;2022-10-17T03:04:19;12.20;99.90
17284;DHT22;8760;52.248;20.952;2022-10-17T03:06:47;12.20;99.90
17284;DHT22;8760;52.248;20.952;2022-10-17T03:09:14;12.20;99.90
17284;DHT22;8760;52.248;20.952;2022-10-17T03:11:41;12.20;99.90
17284;DHT22;8760;52.248;20.952;2022-10-17T03:14:08;12.20;99.90
17284;DHT22;8760;52.248;20.952;2022-10-17T03:16:35;12.20;99.90
17284;DHT22;8760;52.248;20.952;2022-10-17T03:19:02;12.20;99.90
17284;DHT22;8760;52.248;20.952;2022-10-17T03:21:31;12.20;99.90
17284;DHT22;8760;52.248;20.952;2022-10-17T03:23:58;12.20;99.90
17284;DHT22;8760;52.248;20.952;2022-10-17T03:26:25;12.20;99.90
17284;DHT22;8760;52.248;20.952;2022-10-17T03:28:52;12.20;99.90
17284;DHT22;8760;52.248;20.952;2022-10-17T03:31:19;12.20;99.90
17284;DHT22;8760;52.248;20.952;2022-10-17T03:33:46;12.30;99.90
17284;DHT22;8760;52.248;20.952;2022-10-17T03:36:15;12.30;99.90
17284;DHT22;8760;52.248;20.952;2022-10-17T03:38:43;12.30;99.90
17284;DHT22;8760;52.248;20.952;2022-10-17T03:41:11;12.40;99.90
17284;DHT22;8760;52.248;20.952;2022-10-17T03:43:38;12.40;99.90
17284;DHT22;8760;52.248;20.952;2022-10-17T03:46:06;12.50;99.90
17284;DHT22;8760;52.248;20.952;2022-10-17T03:48:33;12.50;99.90
17284;DHT22;8760;52.248;20.952;2022-10-17T03:51:02;12.60;99.90
17284;DHT22;8760;52.248;20.952;2022-10-17T03:53:29;12.70;99.90
17284;DHT22;8760;52.248;20.952;2022-10-17T03:56:08;12.80;99.90
17284;DHT22;8760;52.248;20.952;2022-10-17T03:58:35;12.80;99.90
17284;DHT22;8760;52.248;20.952;2022-10-17T04:01:03;12.90;99.90
17284;DHT22;8760;52.248;20.952;2022-10-17T04:03:30;13.00;99.90
17284;DHT22;8760;52.248;20.952;2022-10-17T04:05:58;13.10;99.90
17284;DHT22;8760;52.248;20.952;2022-10-17T04:08:25;13.10;99.90
17284;DHT22;8760;52.248;20.952;2022-10-17T04:10:56;13.20;99.90
17284;DHT22;8760;52.248;20.952;2022-10-17T04:13:24;13.30;99.90
17284;DHT22;8760;52.248;20.952;2022-10-17T04:15:54;13.30;99.90
17284;DHT22;8760;52.248;20.952;2022-10-17T04:18:22;13.30;99.90
17284;DHT22;8760;52.248;20.952;2022-10-17T04:20:49;13.40;99.90
17284;DHT22;8760;52.248;20.952;2022-10-17T04:23:16;13.30;99.90
17284;DHT22;8760;52.248;20.952;2022-10-17T04:25:44;13.40;99.90
17284;DHT22;8760;52.248;20.952;2022-10-17T04:28:11;13.40;99.90
17284;DHT22;8760;52.248;20.952;2022-10-17T04:30:40;13.40;99.90
17284;DHT22;8760;52.248;20.952;2022-10-17T04:33:07;13.40;99.90
17284;DHT22;8760;52.248;20.952;2022-10-17T04:35:34;13.40;99.90
17284;DHT22;8760;52.248;20.952;2022-10-17T04:38:00;13.40;99.90
17284;DHT22;8760;52.248;20.952;2022-10-17T04:40:27;13.40;99.90
17284;DHT22;8760;52.248;20.952;2022-10-17T04:42:54;13.40;99.90
17284;DHT22;8760;52.248;20.952;2022-10-17T04:45:21;13.40;99.90
17284;DHT22;8760;52.248;20.952;2022-10-17T04:47:50;13.40;99.90
17284;DHT22;8760;52.248;20.952;2022-10-17T04:50:17;13.40;99.90
17284;DHT22;8760;52.248;20.952;2022-10-17T04:52:44;13.40;99.90
17284;DHT22;8760;52.248;20.952;2022-10-17T04:55:11;13.30;99.90
17284;DHT22;8760;52.248;20.952;2022-10-17T04:57:38;13.30;99.90
17284;DHT22;8760;52.248;20.952;2022-10-17T05:00:06;13.30;99.90
17284;DHT22;8760;52.248;20.952;2022-10-17T05:02:34;13.30;99.90
17284;DHT22;8760;52.248;20.952;2022-10-17T05:05:04;13.30;99.90
17284;DHT22;8760;52.248;20.952;2022-10-17T05:07:31;13.30;99.90
17284;DHT22;8760;52.248;20.952;2022-10-17T05:09:57;13.30;99.90
17284;DHT22;8760;52.248;20.952;2022-10-17T05:12:25;13.30;99.90
17284;DHT22;8760;52.248;20.952;2022-10-17T05:14:51;13.30;99.90
17284;DHT22;8760;52.248;20.952;2022-10-17T05:17:18;13.30;99.90
17284;DHT22;8760;52.248;20.952;2022-10-17T05:19:45;13.30;99.90
17284;DHT22;8760;52.248;20.952;2022-10-17T05:22:14;13.30;99.90
17284;DHT22;8760;52.248;20.952;2022-10-17T05:24:41;13.30;99.90
17284;DHT22;8760;52.248;20.952;2022-10-17T05:27:08;13.40;99.90
17284;DHT22;8760;52.248;20.952;2022-10-17T05:29:35;13.40;99.90
17284;DHT22;8760;52.248;20.952;2022-10-17T05:32:02;13.30;99.90
17284;DHT22;8760;52.248;20.952;2022-10-17T05:34:28;13.40;99.90
17284;DHT22;8760;52.248;20.952;2022-10-17T05:36:56;13.40;99.90
17284;DHT22;8760;52.248;20.952;2022-10-17T05:39:25;13.40;99.90
17284;DHT22;8760;52.248;20.952;2022-10-17T05:41:51;13.30;99.90
17284;DHT22;8760;52.248;20.952;2022-10-17T05:44:18;13.30;99.90
17284;DHT22;8760;52.248;20.952;2022-10-17T05:46:47;13.30;99.90
17284;DHT22;8760;52.248;20.952;2022-10-17T05:49:14;13.30;99.90
17284;DHT22;8760;52.248;20.952;2022-10-17T05:51:41;13.30;99.90
17284;DHT22;8760;52.248;20.952;2022-10-17T05:54:08;13.40;99.90
17284;DHT22;8760;52.248;20.952;2022-10-17T05:56:37;13.50;99.90
17284;DHT22;8760;52.248;20.952;2022-10-17T05:59:05;13.50;99.90
17284;DHT22;8760;52.248;20.952;2022-10-17T06:01:32;13.60;99.90
17284;DHT22;8760;52.248;20.952;2022-10-17T06:04:00;13.60;99.90
17284;DHT22;8760;52.248;20.952;2022-10-17T06:06:27;13.70;99.90
17284;DHT22;8760;52.248;20.952;2022-10-17T06:08:54;13.70;99.90
17284;DHT22;8760;52.248;20.952;2022-10-17T06:11:21;13.70;99.90
17284;DHT22;8760;52.248;20.952;2022-10-17T06:13:49;13.80;99.90
17284;DHT22;8760;52.248;20.952;2022-10-17T06:16:18;13.80;99.90
17284;DHT22;8760;52.248;20.952;2022-10-17T06:18:45;13.80;99.90
17284;DHT22;8760;52.248;20.952;2022-10-17T06:21:14;13.90;99.90
17284;DHT22;8760;52.248;20.952;2022-10-17T06:23:42;14.00;99.90
17284;DHT22;8760;52.248;20.952;2022-10-17T06:26:09;14.10;99.90
17284;DHT22;8760;52.248;20.952;2022-10-17T06:28:36;14.20;99.90
17284;DHT22;8760;52.248;20.952;2022-10-17T06:31:06;14.20;99.90
17284;DHT22;8760;52.248;20.952;2022-10-17T06:33:33;14.30;99.90
17284;DHT22;8760;52.248;20.952;2022-10-17T06:36:00;14.30;99.90
17284;DHT22;8760;52.248;20.952;2022-10-17T06:38:28;14.40;99.90
17284;DHT22;8760;52.248;20.952;2022-10-17T06:41:02;14.50;99.90
17284;DHT22;8760;52.248;20.952;2022-10-17T06:43:29;14.60;99.90
17284;DHT22;8760;52.248;20.952;2022-10-17T06:45:56;14.70;99.90
17284;DHT22;8760;52.248;20.952;2022-10-17T06:48:24;14.80;99.90
17284;DHT22;8760;52.248;20.952;2022-10-17T06:50:51;15.00;99.90
17284;DHT22;8760;52.248;20.952;2022-10-17T06:53:18;15.30;99.90
17284;DHT22;8760;52.248;20.952;2022-10-17T06:55:50;15.80;99.90
17284;DHT22;8760;52.248;20.952;2022-10-17T06:58:17;16.30;99.90
17284;DHT22;8760;52.248;20.952;2022-10-17T07:00:44;16.60;99.90
17284;DHT22;8760;52.248;20.952;2022-10-17T07:03:11;16.90;99.90
17284;DHT22;8760;52.248;20.952;2022-10-17T07:05:39;17.10;99.90
17284;DHT22;8760;52.248;20.952;2022-10-17T07:08:06;17.10;99.90
17284;DHT22;8760;52.248;20.952;2022-10-17T07:10:33;16.90;99.90
17284;DHT22;8760;52.248;20.952;2022-10-17T07:13:03;16.70;99.90
17284;DHT22;8760;52.248;20.952;2022-10-17T07:15:30;16.60;1.00
17284;DHT22;8760;52.248;20.952;2022-10-17T07:17:57;16.50;1.00
17284;DHT22;8760;52.248;20.952;2022-10-17T07:20:24;16.50;1.00
17284;DHT22;8760;52.248;20.952;2022-10-17T07:22:53;16.50;1.00
17284;DHT22;8760;52.248;20.952;2022-10-17T07:25:20;16.50;1.00
17284;DHT22;8760;52.248;20.952;2022-10-17T07:27:48;16.50;1.00
17284;DHT22;8760;52.248;20.952;2022-10-17T07:30:15;16.50;1.00
17284;DHT22;8760;52.248;20.952;2022-10-17T07:32:42;16.40;1.00
17284;DHT22;8760;52.248;20.952;2022-10-17T07:35:10;16.50;1.00
17284;DHT22;8760;52.248;20.952;2022-10-17T07:37:38;16.60;1.00
17284;DHT22;8760;52.248;20.952;2022-10-17T07:40:07;16.70;1.00
17284;DHT22;8760;52.248;20.952;2022-10-17T07:42:35;16.70;1.00
17284;DHT22;8760;52.248;20.952;2022-10-17T07:45:04;16.70;1.00
17284;DHT22;8760;52.248;20.952;2022-10-17T07:47:31;16.80;1.00
17284;DHT22;8760;52.248;20.952;2022-10-17T07:50:00;16.90;1.00
17284;DHT22;8760;52.248;20.952;2022-10-17T07:52:27;17.00;99.90
17284;DHT22;8760;52.248;20.952;2022-10-17T07:54:54;17.30;99.90
17284;DHT22;8760;52.248;20.952;2022-10-17T07:57:22;17.90;1.00
17284;DHT22;8760;52.248;20.952;2022-10-17T07:59:49;18.60;1.00
17284;DHT22;8760;52.248;20.952;2022-10-17T08:02:20;19.30;1.00
17284;DHT22;8760;52.248;20.952;2022-10-17T08:04:47;20.00;99.90
17284;DHT22;8760;52.248;20.952;2022-10-17T08:07:14;20.50;1.00
17284;DHT22;8760;52.248;20.952;2022-10-17T08:09:41;20.40;99.90
17284;DHT22;8760;52.248;20.952;2022-10-17T08:12:08;20.20;13.80
17284;DHT22;8760;52.248;20.952;2022-10-17T08:14:37;19.90;99.90
17284;DHT22;8760;52.248;20.952;2022-10-17T08:17:04;19.60;1.00
17284;DHT22;8760;52.248;20.952;2022-10-17T08:19:31;19.40;1.00
17284;DHT22;8760;52.248;20.952;2022-10-17T08:21:58;19.40;7.90
17284;DHT22;8760;52.248;20.952;2022-10-17T08:24:26;19.60;1.00
17284;DHT22;8760;52.248;20.952;2022-10-17T08:26:53;20.10;1.00
17284;DHT22;8760;52.248;20.952;2022-10-17T08:29:23;20.50;99.90
17284;DHT22;8760;52.248;20.952;2022-10-17T08:31:51;21.10;1.00
17284;DHT22;8760;52.248;20.952;2022-10-17T08:34:18;21.00;1.00
17284;DHT22;8760;52.248;20.952;2022-10-17T08:36:45;21.10;1.00
17284;DHT22;8760;52.248;20.952;2022-10-17T08:39:12;21.10;1.00
17284;DHT22;8760;52.248;20.952;2022-10-17T08:41:50;21.20;99.90
17284;DHT22;8760;52.248;20.952;2022-10-17T08:44:30;21.60;99.90
17284;DHT22;8760;52.248;20.952;2022-10-17T08:47:08;22.10;99.90
17284;DHT22;8760;52.248;20.952;2022-10-17T08:49:41;22.50;99.90
17284;DHT22;8760;52.248;20.952;2022-10-17T08:52:19;22.70;51.90
17284;DHT22;8760;52.248;20.952;2022-10-17T08:54:48;22.90;9.60
17284;DHT22;8760;52.248;20.952;2022-10-17T08:57:16;23.20;1.00
17284;DHT22;8760;52.248;20.952;2022-10-17T08:59:44;23.60;1.00
17284;DHT22;8760;52.248;20.952;2022-10-17T09:02:41;23.80;1.00
17284;DHT22;8760;52.248;20.952;2022-10-17T09:05:28;24.10;1.00
17284;DHT22;8760;52.248;20.952;2022-10-17T09:08:04;24.30;1.00
17284;DHT22;8760;52.248;20.952;2022-10-17T09:10:40;24.90;1.00
17284;DHT22;8760;52.248;20.952;2022-10-17T09:13:23;25.20;1.00
17284;DHT22;8760;52.248;20.952;2022-10-17T09:16:07;25.50;1.00
17284;DHT22;8760;52.248;20.952;2022-10-17T09:18:39;25.70;1.00
17284;DHT22;8760;52.248;20.952;2022-10-17T09:21:16;25.90;1.00
17284;DHT22;8760;52.248;20.952;2022-10-17T09:23:47;26.10;1.00
17284;DHT22;8760;52.248;20.952;2022-10-17T09:26:15;26.50;99.90
17284;DHT22;8760;52.248;20.952;2022-10-17T09:28:43;26.60;99.90
17284;DHT22;8760;52.248;20.952;2022-10-17T09:31:13;27.00;99.90
17284;DHT22;8760;52.248;20.952;2022-10-17T09:33:44;27.40;99.90
17284;DHT22;8760;52.248;20.952;2022-10-17T09:36:15;26.80;99.90
17284;DHT22;8760;52.248;20.952;2022-10-17T09:38:46;26.60;99.90
17284;DHT22;8760;52.248;20.952;2022-10-17T09:41:17;26.30;99.90
17284;DHT22;8760;52.248;20.952;2022-10-17T09:43:44;26.20;99.90
17284;DHT22;8760;52.248;20.952;2022-10-17T09:46:16;26.40;99.90
17284;DHT22;8760;52.248;20.952;2022-10-17T09:48:49;26.50;99.90
17284;DHT22;8760;52.248;20.952;2022-10-17T09:51:17;26.90;99.90
17284;DHT22;8760;52.248;20.952;2022-10-17T09:53:47;27.30;99.90
17284;DHT22;8760;52.248;20.952;2022-10-17T09:56:18;27.40;99.90
17284;DHT22;8760;52.248;20.952;2022-10-17T09:58:47;27.80;99.90
17284;DHT22;8760;52.248;20.952;2022-10-17T10:01:20;27.70;99.90
17284;DHT22;8760;52.248;20.952;2022-10-17T10:06:33;28.40;99.90
17284;DHT22;8760;52.248;20.952;2022-10-17T10:09:00;28.10;99.90
17284;DHT22;8760;52.248;20.952;2022-10-17T10:11:44;28.00;99.90
17284;DHT22;8760;52.248;20.952;2022-10-17T10:14:19;28.30;99.90
17284;DHT22;8760;52.248;20.952;2022-10-17T10:16:47;28.30;99.90
17284;DHT22;8760;52.248;20.952;2022-10-17T10:19:25;28.60;99.90
17284;DHT22;8760;52.248;20.952;2022-10-17T10:21:55;28.80;99.90
17284;DHT22;8760;52.248;20.952;2022-10-17T10:24:22;29.20;99.90
17284;DHT22;8760;52.248;20.952;2022-10-17T10:26:50;29.30;99.90
17284;DHT22;8760;52.248;20.952;2022-10-17T10:29:22;29.30;99.90
17284;DHT22;8760;52.248;20.952;2022-10-17T10:31:51;28.90;99.90
17284;DHT22;8760;52.248;20.952;2022-10-17T10:34:24;28.90;99.90
17284;DHT22;8760;52.248;20.952;2022-10-17T10:36:55;28.60;99.90
17284;DHT22;8760;52.248;20.952;2022-10-17T10:39:36;28.50;99.90
17284;DHT22;8760;52.248;20.952;2022-10-17T10:42:06;28.20;99.90
17284;DHT22;8760;52.248;20.952;2022-10-17T10:44:35;27.30;99.90
17284;DHT22;8760;52.248;20.952;2022-10-17T10:47:18;26.70;99.90
17284;DHT22;8760;52.248;20.952;2022-10-17T10:49:49;26.30;99.90
17284;DHT22;8760;52.248;20.952;2022-10-17T10:52:28;25.70;99.90
17284;DHT22;8760;52.248;20.952;2022-10-17T10:55:02;25.10;99.90
17284;DHT22;8760;52.248;20.952;2022-10-17T10:57:32;24.90;99.90
17284;DHT22;8760;52.248;20.952;2022-10-17T11:00:07;24.60;99.90
17284;DHT22;8760;52.248;20.952;2022-10-17T11:02:47;24.40;99.90
17284;DHT22;8760;52.248;20.952;2022-10-17T11:05:21;24.10;99.90
17284;DHT22;8760;52.248;20.952;2022-10-17T11:07:53;23.70;99.90
17284;DHT22;8760;52.248;20.952;2022-10-17T11:10:27;23.50;99.90
17284;DHT22;8760;52.248;20.952;2022-10-17T11:13:02;23.40;99.90
17284;DHT22;8760;52.248;20.952;2022-10-17T11:15:33;23.10;99.90
17284;DHT22;8760;52.248;20.952;2022-10-17T11:18:04;22.80;99.90
17284;DHT22;8760;52.248;20.952;2022-10-17T11:20:40;22.70;99.90
17284;DHT22;8760;52.248;20.952;2022-10-17T11:23:17;22.50;99.90
17284;DHT22;8760;52.248;20.952;2022-10-17T11:25:46;22.50;99.90
17284;DHT22;8760;52.248;20.952;2022-10-17T11:28:17;22.60;1.00
17284;DHT22;8760;52.248;20.952;2022-10-17T11:30:47;22.60;1.00
17284;DHT22;8760;52.248;20.952;2022-10-17T11:33:22;22.50;1.00
17284;DHT22;8760;52.248;20.952;2022-10-17T11:35:54;22.50;1.00
17284;DHT22;8760;52.248;20.952;2022-10-17T11:38:29;22.60;1.00
17284;DHT22;8760;52.248;20.952;2022-10-17T11:40:59;22.80;1.00
17284;DHT22;8760;52.248;20.952;2022-10-17T11:43:30;22.50;1.00
17284;DHT22;8760;52.248;20.952;2022-10-17T11:46:03;22.50;1.00
17284;DHT22;8760;52.248;20.952;2022-10-17T11:48:34;22.50;1.00
17284;DHT22;8760;52.248;20.952;2022-10-17T11:51:08;22.70;1.00
17284;DHT22;8760;52.248;20.952;2022-10-17T11:53:46;22.70;1.00
17284;DHT22;8760;52.248;20.952;2022-10-17T11:56:18;22.80;1.00
17284;DHT22;8760;52.248;20.952;2022-10-17T11:58:51;22.80;1.00
17284;DHT22;8760;52.248;20.952;2022-10-17T12:01:26;23.00;1.00
17284;DHT22;8760;52.248;20.952;2022-10-17T12:04:16;23.00;99.90
17284;DHT22;8760;52.248;20.952;2022-10-17T12:07:00;22.90;99.90
17284;DHT22;8760;52.248;20.952;2022-10-17T12:09:39;22.80;1.00
17284;DHT22;8760;52.248;20.952;2022-10-17T12:12:07;22.40;1.00
17284;DHT22;8760;52.248;20.952;2022-10-17T12:14:39;22.30;1.00
17284;DHT22;8760;52.248;20.952;2022-10-17T12:17:28;22.10;1.00
17284;DHT22;8760;52.248;20.952;2022-10-17T12:20:23;22.10;1.00
17284;DHT22;8760;52.248;20.952;2022-10-17T12:22:53;22.00;1.00
17284;DHT22;8760;52.248;20.952;2022-10-17T12:25:22;22.20;1.00
17284;DHT22;8760;52.248;20.952;2022-10-17T12:28:09;22.20;1.00
17284;DHT22;8760;52.248;20.952;2022-10-17T12:30:49;22.20;1.00
17284;DHT22;8760;52.248;20.952;2022-10-17T12:33:18;22.20;1.00
17284;DHT22;8760;52.248;20.952;2022-10-17T12:35:47;22.30;1.00
17284;DHT22;8760;52.248;20.952;2022-10-17T12:38:25;22.50;1.00
17284;DHT22;8760;52.248;20.952;2022-10-17T12:40:58;22.60;1.00
17284;DHT22;8760;52.248;20.952;2022-10-17T12:43:50;22.60;1.00
17284;DHT22;8760;52.248;20.952;2022-10-17T12:46:40;22.50;1.00
17284;DHT22;8760;52.248;20.952;2022-10-17T12:49:39;22.40;1.00
17284;DHT22;8760;52.248;20.952;2022-10-17T12:52:26;22.40;1.00
17284;DHT22;8760;52.248;20.952;2022-10-17T12:55:05;22.40;1.00
17284;DHT22;8760;52.248;20.952;2022-10-17T12:57:39;22.40;1.00
17284;DHT22;8760;52.248;20.952;2022-10-17T13:00:16;22.30;1.00
17284;DHT22;8760;52.248;20.952;2022-10-17T13:02:46;22.40;1.00
17284;DHT22;8760;52.248;20.952;2022-10-17T13:05:17;22.10;1.00
17284;DHT22;8760;52.248;20.952;2022-10-17T13:07:46;22.10;1.00
17284;DHT22;8760;52.248;20.952;2022-10-17T13:10:24;22.20;1.00
17284;DHT22;8760;52.248;20.952;2022-10-17T13:12:57;22.20;1.00
17284;DHT22;8760;52.248;20.952;2022-10-17T13:15:25;22.20;1.00
17284;DHT22;8760;52.248;20.952;2022-10-17T13:17:57;22.00;1.00
17284;DHT22;8760;52.248;20.952;2022-10-17T13:20:26;22.00;1.00
17284;DHT22;8760;52.248;20.952;2022-10-17T13:22:54;22.00;1.00
17284;DHT22;8760;52.248;20.952;2022-10-17T13:25:24;22.00;1.00
17284;DHT22;8760;52.248;20.952;2022-10-17T13:28:03;21.90;1.00
17284;DHT22;8760;52.248;20.952;2022-10-17T13:30:33;21.90;1.00
17284;DHT22;8760;52.248;20.952;2022-10-17T13:33:01;21.70;1.00
17284;DHT22;8760;52.248;20.952;2022-10-17T13:35:30;21.70;1.00
17284;DHT22;8760;52.248;20.952;2022-10-17T13:37:59;21.80;1.00
17284;DHT22;8760;52.248;20.952;2022-10-17T13:40:30;21.90;1.00
17284;DHT22;8760;52.248;20.952;2022-10-17T13:43:03;21.80;1.00
17284;DHT22;8760;52.248;20.952;2022-10-17T13:45:37;21.80;1.00
17284;DHT22;8760;52.248;20.952;2022-10-17T13:48:06;21.80;1.00
17284;DHT22;8760;52.248;20.952;2022-10-17T13:50:42;21.80;1.00
17284;DHT22;8760;52.248;20.952;2022-10-17T13:53:18;21.90;1.00
17284;DHT22;8760;52.248;20.952;2022-10-17T13:55:59;21.90;1.00
17284;DHT22;8760;52.248;20.952;2022-10-17T13:58:31;22.00;1.00
17284;DHT22;8760;52.248;20.952;2022-10-17T14:01:05;22.00;1.00
17284;DHT22;8760;52.248;20.952;2022-10-17T14:03:33;22.10;1.00
17284;DHT22;8760;52.248;20.952;2022-10-17T14:06:16;22.10;1.00
17284;DHT22;8760;52.248;20.952;2022-10-17T14:08:56;22.10;1.00
17284;DHT22;8760;52.248;20.952;2022-10-17T14:11:31;22.10;1.00
17284;DHT22;8760;52.248;20.952;2022-10-17T14:13:59;22.00;1.00
17284;DHT22;8760;52.248;20.952;2022-10-17T14:16:33;21.70;1.00
17284;DHT22;8760;52.248;20.952;2022-10-17T14:19:00;21.70;1.00
17284;DHT22;8760;52.248;20.952;2022-10-17T14:21:28;21.50;1.00
17284;DHT22;8760;52.248;20.952;2022-10-17T14:24:14;21.30;1.00
17284;DHT22;8760;52.248;20.952;2022-10-17T14:26:50;21.20;33.50
17284;DHT22;8760;52.248;20.952;2022-10-17T14:29:23;21.10;99.90
17284;DHT22;8760;52.248;20.952;2022-10-17T14:32:00;21.00;99.90
17284;DHT22;8760;52.248;20.952;2022-10-17T14:34:31;20.90;99.90
17284;DHT22;8760;52.248;20.952;2022-10-17T14:36:58;20.90;99.90
17284;DHT22;8760;52.248;20.952;2022-10-17T14:39:26;20.90;99.90
17284;DHT22;8760;52.248;20.952;2022-10-17T14:41:55;20.80;1.00
17284;DHT22;8760;52.248;20.952;2022-10-17T14:44:25;20.80;1.00
17284;DHT22;8760;52.248;20.952;2022-10-17T14:46:56;20.70;1.00
17284;DHT22;8760;52.248;20.952;2022-10-17T14:49:30;20.70;1.00
17284;DHT22;8760;52.248;20.952;2022-10-17T14:52:27;20.70;1.00
17284;DHT22;8760;52.248;20.952;2022-10-17T14:54:55;20.70;1.00
17284;DHT22;8760;52.248;20.952;2022-10-17T14:57:27;20.60;1.00
17284;DHT22;8760;52.248;20.952;2022-10-17T14:59:55;20.50;1.00
17284;DHT22;8760;52.248;20.952;2022-10-17T15:02:23;20.50;1.00
17284;DHT22;8760;52.248;20.952;2022-10-17T15:04:50;20.50;1.00
17284;DHT22;8760;52.248;20.952;2022-10-17T15:07:17;20.50;1.00
17284;DHT22;8760;52.248;20.952;2022-10-17T15:09:47;20.50;1.00
17284;DHT22;8760;52.248;20.952;2022-10-17T15:12:17;20.40;16.40
17284;DHT22;8760;52.248;20.952;2022-10-17T15:14:45;20.30;99.90
17284;DHT22;8760;52.248;20.952;2022-10-17T15:17:15;20.30;99.90
17284;DHT22;8760;52.248;20.952;2022-10-17T15:19:43;20.20;99.90
17284;DHT22;8760;52.248;20.952;2022-10-17T15:22:10;20.20;99.90
17284;DHT22;8760;52.248;20.952;2022-10-17T15:24:37;20.10;99.90
17284;DHT22;8760;52.248;20.952;2022-10-17T15:27:08;20.00;1.00
17284;DHT22;8760;52.248;20.952;2022-10-17T15:29:39;20.00;1.00
17284;DHT22;8760;52.248;20.952;2022-10-17T15:32:07;19.90;1.00
17284;DHT22;8760;52.248;20.952;2022-10-17T15:34:34;19.90;16.20
17284;DHT22;8760;52.248;20.952;2022-10-17T15:37:03;19.80;99.90
17284;DHT22;8760;52.248;20.952;2022-10-17T15:39:31;19.80;99.90
17284;DHT22;8760;52.248;20.952;2022-10-17T15:41:59;19.70;99.90
17284;DHT22;8760;52.248;20.952;2022-10-17T15:44:26;19.70;1.00
17284;DHT22;8760;52.248;20.952;2022-10-17T15:46:55;19.60;1.00
17284;DHT22;8760;52.248;20.952;2022-10-17T15:49:24;19.60;1.00
17284;DHT22;8760;52.248;20.952;2022-10-17T15:51:51;19.50;99.90
17284;DHT22;8760;52.248;20.952;2022-10-17T15:54:18;19.50;99.90
17284;DHT22;8760;52.248;20.952;2022-10-17T15:56:51;19.40;99.90
17284;DHT22;8760;52.248;20.952;2022-10-17T15:59:23;19.40;99.90
17284;DHT22;8760;52.248;20.952;2022-10-17T16:01:51;19.30;1.00
17284;DHT22;8760;52.248;20.952;2022-10-17T16:04:18;19.30;1.00